Wakulla Springs, Florida
Current Conditions -  °F | °C
As of 1:53 PM on Monday 20 Oct 2014 (Local Time) from KTLH Reporting Station
Broken Clouds Broken Clouds  
Wind Chill: 81°   Ceiling: 3700
Heat Index: 82°   Visibility: 10mi
Dew Point: 61°   Wind: 5mph
Humidity: 50%   Direction: NA
Pressure: 30.01"   Gusts: NA
Location:  30.23°N, 84.31°W
Report Text: KTLH 201753Z VRB04KT 10SM BKN037 BKN250 27/16 A3001 RMK AO2 SLP160 T02720161 10278 20117 58022
Loading
Personal Weather Stations






























Interactive Weather Map
Tropical Storm Tracking
New forecast layout! Learn more

10-Day Weather Forecast

Advertisements
Track Severe Weather on mobile